sensor_id;sensor_type;location;lat;lon;timestamp;pressure;altitude;pressure_sealevel;temperature;humidity
16595;BME280;8410;52.532;13.336;2024-02-15T00:01:31;101226.78;;;18.54;64.96
16595;BME280;8410;52.532;13.336;2024-02-15T00:03:58;101223.13;;;19.30;63.15
16595;BME280;8410;52.532;13.336;2024-02-15T00:06:26;101226.59;;;19.31;63.08
16595;BME280;8410;52.532;13.336;2024-02-15T00:08:53;101215.50;;;19.71;61.97
16595;BME280;8410;52.532;13.336;2024-02-15T00:11:21;101220.69;;;19.20;63.09
16595;BME280;8410;52.532;13.336;2024-02-15T00:13:48;101218.59;;;19.40;62.29
16595;BME280;8410;52.532;13.336;2024-02-15T00:16:17;101215.00;;;19.49;62.32
16595;BME280;8410;52.532;13.336;2024-02-15T00:18:44;101216.38;;;19.70;61.74
16595;BME280;8410;52.532;13.336;2024-02-15T00:21:12;101218.94;;;19.18;63.63
16595;BME280;8410;52.532;13.336;2024-02-15T00:23:41;101217.06;;;19.81;61.66
16595;BME280;8410;52.532;13.336;2024-02-15T00:26:08;101215.25;;;19.83;61.32
16595;BME280;8410;52.532;13.336;2024-02-15T00:28:41;101213.56;;;19.82;61.05
16595;BME280;8410;52.532;13.336;2024-02-15T00:31:09;101210.78;;;19.90;61.20
16595;BME280;8410;52.532;13.336;2024-02-15T00:33:37;101210.94;;;19.80;61.18
16595;BME280;8410;52.532;13.336;2024-02-15T00:36:06;101207.75;;;19.66;61.54
16595;BME280;8410;52.532;13.336;2024-02-15T00:38:33;101210.22;;;19.74;61.49
16595;BME280;8410;52.532;13.336;2024-02-15T00:41:01;101212.75;;;19.78;61.59
16595;BME280;8410;52.532;13.336;2024-02-15T00:43:29;101214.28;;;19.90;61.14
16595;BME280;8410;52.532;13.336;2024-02-15T00:45:56;101214.84;;;20.04;61.76
16595;BME280;8410;52.532;13.336;2024-02-15T00:48:24;101215.97;;;20.36;60.50
16595;BME280;8410;52.532;13.336;2024-02-15T00:50:56;101216.19;;;20.27;61.59
16595;BME280;8410;52.532;13.336;2024-02-15T00:53:24;101216.09;;;20.30;60.99
16595;BME280;8410;52.532;13.336;2024-02-15T00:55:52;101230.03;;;20.32;60.83
16595;BME280;8410;52.532;13.336;2024-02-15T00:58:19;101219.00;;;20.16;61.17
16595;BME280;8410;52.532;13.336;2024-02-15T01:00:48;101225.16;;;20.14;61.21
16595;BME280;8410;52.532;13.336;2024-02-15T01:03:16;101214.84;;;20.04;61.25
16595;BME280;8410;52.532;13.336;2024-02-15T01:05:43;101215.69;;;20.07;60.32
16595;BME280;8410;52.532;13.336;2024-02-15T01:08:12;101215.22;;;19.86;61.61
16595;BME280;8410;52.532;13.336;2024-02-15T01:10:40;101213.28;;;19.97;61.09
16595;BME280;8410;52.532;13.336;2024-02-15T01:13:07;101212.63;;;19.86;61.77
16595;BME280;8410;52.532;13.336;2024-02-15T01:15:35;101214.97;;;19.98;61.12
16595;BME280;8410;52.532;13.336;2024-02-15T01:18:03;101206.81;;;19.69;61.50
16595;BME280;8410;52.532;13.336;2024-02-15T01:20:31;101214.47;;;19.78;61.01
16595;BME280;8410;52.532;13.336;2024-02-15T01:22:58;101210.38;;;19.65;61.90
16595;BME280;8410;52.532;13.336;2024-02-15T01:25:27;101212.19;;;19.59;62.41
16595;BME280;8410;52.532;13.336;2024-02-15T01:27:55;101202.78;;;19.49;63.07
16595;BME280;8410;52.532;13.336;2024-02-15T01:30:22;101210.38;;;19.61;62.20
16595;BME280;8410;52.532;13.336;2024-02-15T01:32:50;101208.56;;;20.15;61.22
16595;BME280;8410;52.532;13.336;2024-02-15T01:35:18;101207.28;;;19.92;60.49
16595;BME280;8410;52.532;13.336;2024-02-15T01:37:45;101211.66;;;19.90;61.62
16595;BME280;8410;52.532;13.336;2024-02-15T01:40:13;101210.50;;;20.05;61.37
16595;BME280;8410;52.532;13.336;2024-02-15T01:42:41;101207.41;;;19.86;61.76
16595;BME280;8410;52.532;13.336;2024-02-15T01:45:09;101211.38;;;20.05;60.92
16595;BME280;8410;52.532;13.336;2024-02-15T01:47:38;101210.53;;;20.02;60.90
16595;BME280;8410;52.532;13.336;2024-02-15T01:50:08;101202.97;;;19.88;61.14
16595;BME280;8410;52.532;13.336;2024-02-15T01:52:35;101205.28;;;19.55;62.57
16595;BME280;8410;52.532;13.336;2024-02-15T01:55:05;101205.84;;;19.74;62.61
16595;BME280;8410;52.532;13.336;2024-02-15T01:57:35;101199.09;;;20.09;61.40
16595;BME280;8410;52.532;13.336;2024-02-15T02:00:07;101203.41;;;20.12;61.44
16595;BME280;8410;52.532;13.336;2024-02-15T02:02:38;101193.81;;;19.64;62.30
16595;BME280;8410;52.532;13.336;2024-02-15T02:05:07;101199.16;;;20.08;61.53
16595;BME280;8410;52.532;13.336;2024-02-15T02:07:35;101193.78;;;20.14;60.36
16595;BME280;8410;52.532;13.336;2024-02-15T02:10:03;101187.50;;;20.22;61.64
16595;BME280;8410;52.532;13.336;2024-02-15T02:12:31;101193.72;;;20.17;61.40
16595;BME280;8410;52.532;13.336;2024-02-15T02:14:59;101193.19;;;20.41;60.69
16595;BME280;8410;52.532;13.336;2024-02-15T02:17:28;101189.28;;;20.20;61.17
16595;BME280;8410;52.532;13.336;2024-02-15T02:19:55;101186.38;;;19.92;61.43
16595;BME280;8410;52.532;13.336;2024-02-15T02:22:23;101197.88;;;20.25;60.46
16595;BME280;8410;52.532;13.336;2024-02-15T02:24:57;101192.78;;;19.76;61.34
16595;BME280;8410;52.532;13.336;2024-02-15T02:27:26;101207.75;;;19.10;64.13
16595;BME280;8410;52.532;13.336;2024-02-15T02:29:54;101201.16;;;18.88;64.61
16595;BME280;8410;52.532;13.336;2024-02-15T02:32:22;101192.63;;;18.77;64.48
16595;BME280;8410;52.532;13.336;2024-02-15T02:34:49;101197.59;;;18.92;64.70
16595;BME280;8410;52.532;13.336;2024-02-15T02:37:17;101201.22;;;18.82;64.97
16595;BME280;8410;52.532;13.336;2024-02-15T02:39:45;101201.66;;;18.46;66.09
16595;BME280;8410;52.532;13.336;2024-02-15T02:42:14;101198.59;;;18.85;65.21
16595;BME280;8410;52.532;13.336;2024-02-15T02:44:41;101197.25;;;19.13;64.69
16595;BME280;8410;52.532;13.336;2024-02-15T02:47:09;101186.69;;;19.23;64.14
16595;BME280;8410;52.532;13.336;2024-02-15T02:49:36;101192.53;;;19.38;63.56
16595;BME280;8410;52.532;13.336;2024-02-15T02:52:04;101198.94;;;19.17;64.18
16595;BME280;8410;52.532;13.336;2024-02-15T02:54:32;101200.72;;;19.17;63.50
16595;BME280;8410;52.532;13.336;2024-02-15T02:57:00;101197.69;;;18.86;63.76
16595;BME280;8410;52.532;13.336;2024-02-15T02:59:28;101193.50;;;19.30;63.78
16595;BME280;8410;52.532;13.336;2024-02-15T03:01:57;101190.75;;;19.41;63.70
16595;BME280;8410;52.532;13.336;2024-02-15T03:04:24;101193.50;;;19.33;63.76
16595;BME280;8410;52.532;13.336;2024-02-15T03:06:52;101196.19;;;19.27;64.12
16595;BME280;8410;52.532;13.336;2024-02-15T03:09:22;101199.06;;;19.11;64.15
16595;BME280;8410;52.532;13.336;2024-02-15T03:11:49;101193.06;;;19.57;63.10
16595;BME280;8410;52.532;13.336;2024-02-15T03:14:17;101189.66;;;19.00;64.54
16595;BME280;8410;52.532;13.336;2024-02-15T03:16:46;101187.72;;;19.14;64.74
16595;BME280;8410;52.532;13.336;2024-02-15T03:19:13;101186.75;;;19.18;64.37
16595;BME280;8410;52.532;13.336;2024-02-15T03:21:41;101192.78;;;19.23;64.34
16595;BME280;8410;52.532;13.336;2024-02-15T03:24:12;101192.59;;;19.32;64.11
16595;BME280;8410;52.532;13.336;2024-02-15T03:26:40;101197.25;;;19.16;64.54
16595;BME280;8410;52.532;13.336;2024-02-15T03:29:09;101192.59;;;19.32;63.92
16595;BME280;8410;52.532;13.336;2024-02-15T03:31:36;101190.16;;;19.22;64.10
16595;BME280;8410;52.532;13.336;2024-02-15T03:34:05;101190.22;;;19.18;64.27
16595;BME280;8410;52.532;13.336;2024-02-15T03:36:33;101196.44;;;19.11;64.58
16595;BME280;8410;52.532;13.336;2024-02-15T03:39:01;101192.31;;;18.97;65.21
16595;BME280;8410;52.532;13.336;2024-02-15T03:41:28;101197.25;;;19.13;64.99
16595;BME280;8410;52.532;13.336;2024-02-15T03:43:59;101193.78;;;19.14;64.73
16595;BME280;8410;52.532;13.336;2024-02-15T03:46:27;101205.00;;;19.20;64.59
16595;BME280;8410;52.532;13.336;2024-02-15T03:48:54;101203.38;;;19.11;64.99
16595;BME280;8410;52.532;13.336;2024-02-15T03:51:25;101201.56;;;19.17;64.76
16595;BME280;8410;52.532;13.336;2024-02-15T03:53:52;101201.00;;;18.97;65.23
16595;BME280;8410;52.532;13.336;2024-02-15T03:56:20;101203.44;;;19.08;65.41
16595;BME280;8410;52.532;13.336;2024-02-15T03:58:48;101200.78;;;19.12;64.91
16595;BME280;8410;52.532;13.336;2024-02-15T04:01:16;101199.78;;;19.20;64.81
16595;BME280;8410;52.532;13.336;2024-02-15T04:03:44;101198.16;;;19.11;65.00
16595;BME280;8410;52.532;13.336;2024-02-15T04:06:14;101194.00;;;18.99;65.78
16595;BME280;8410;52.532;13.336;2024-02-15T04:08:43;101195.59;;;19.09;65.29
16595;BME280;8410;52.532;13.336;2024-02-15T04:11:11;101202.75;;;18.30;65.96
16595;BME280;8410;52.532;13.336;2024-02-15T04:13:38;101201.41;;;18.66;66.59
16595;BME280;8410;52.532;13.336;2024-02-15T04:16:06;101208.16;;;18.83;65.98
16595;BME280;8410;52.532;13.336;2024-02-15T04:18:33;101197.75;;;18.83;66.11
16595;BME280;8410;52.532;13.336;2024-02-15T04:21:01;101207.16;;;18.93;65.74
16595;BME280;8410;52.532;13.336;2024-02-15T04:23:29;101198.47;;;18.92;65.95
16595;BME280;8410;52.532;13.336;2024-02-15T04:25:58;101193.78;;;19.14;65.07
16595;BME280;8410;52.532;13.336;2024-02-15T04:28:26;101196.63;;;18.99;65.73
16595;BME280;8410;52.532;13.336;2024-02-15T04:30:53;101197.47;;;19.00;65.63
16595;BME280;8410;52.532;13.336;2024-02-15T04:33:21;101199.06;;;19.08;65.30
16595;BME280;8410;52.532;13.336;2024-02-15T04:35:49;101196.44;;;19.11;65.14
16595;BME280;8410;52.532;13.336;2024-02-15T04:38:17;101201.19;;;18.85;66.08
16595;BME280;8410;52.532;13.336;2024-02-15T04:40:46;101193.09;;;19.03;65.69
16595;BME280;8410;52.532;13.336;2024-02-15T04:43:15;101195.56;;;19.11;65.44
16595;BME280;8410;52.532;13.336;2024-02-15T04:45:42;101191.19;;;19.13;65.31
16595;BME280;8410;52.532;13.336;2024-02-15T04:48:10;101196.44;;;19.11;64.96
16595;BME280;8410;52.532;13.336;2024-02-15T04:50:40;101198.31;;;19.03;66.15
16595;BME280;8410;52.532;13.336;2024-02-15T04:53:09;101196.34;;;19.16;64.53
16595;BME280;8410;52.532;13.336;2024-02-15T04:55:38;101199.34;;;18.91;66.08
16595;BME280;8410;52.532;13.336;2024-02-15T04:58:05;101198.22;;;19.08;65.80
16595;BME280;8410;52.532;13.336;2024-02-15T05:00:34;101200.94;;;19.03;65.62
16595;BME280;8410;52.532;13.336;2024-02-15T05:03:03;101199.97;;;19.07;65.48
16595;BME280;8410;52.532;13.336;2024-02-15T05:05:30;101197.13;;;19.23;65.53
16595;BME280;8410;52.532;13.336;2024-02-15T05:07:58;101199.56;;;19.33;64.85
16595;BME280;8410;52.532;13.336;2024-02-15T05:10:27;101206.69;;;19.24;65.12
16595;BME280;8410;52.532;13.336;2024-02-15T05:12:55;101203.88;;;19.36;65.47
16595;BME280;8410;52.532;13.336;2024-02-15T05:15:22;101203.38;;;19.11;65.75
16595;BME280;8410;52.532;13.336;2024-02-15T05:17:53;101202.31;;;19.24;65.31
16595;BME280;8410;52.532;13.336;2024-02-15T05:20:21;101201.34;;;19.30;65.24
16595;BME280;8410;52.532;13.336;2024-02-15T05:22:48;101203.25;;;19.20;65.42
16595;BME280;8410;52.532;13.336;2024-02-15T05:25:17;101213.63;;;19.25;65.05
16595;BME280;8410;52.532;13.336;2024-02-15T05:27:50;101206.09;;;19.06;66.72
16595;BME280;8410;52.532;13.336;2024-02-15T05:30:20;101207.78;;;19.09;66.24
16595;BME280;8410;52.532;13.336;2024-02-15T05:32:48;101201.56;;;19.16;65.42
16595;BME280;8410;52.532;13.336;2024-02-15T05:35:18;101199.78;;;19.20;65.72
16595;BME280;8410;52.532;13.336;2024-02-15T05:37:45;101200.47;;;19.31;65.07
16595;BME280;8410;52.532;13.336;2024-02-15T05:40:13;101206.84;;;19.14;65.65
16595;BME280;8410;52.532;13.336;2024-02-15T05:42:42;101207.63;;;19.20;66.55
16595;BME280;8410;52.532;13.336;2024-02-15T05:45:29;101209.22;;;19.27;65.94
16595;BME280;8410;52.532;13.336;2024-02-15T05:47:59;101203.88;;;19.34;64.84
16595;BME280;8410;52.532;13.336;2024-02-15T05:50:29;101212.78;;;19.23;65.64
16595;BME280;8410;52.532;13.336;2024-02-15T05:52:57;101209.34;;;19.21;65.63
16595;BME280;8410;52.532;13.336;2024-02-15T05:55:25;101207.63;;;19.20;65.67
16595;BME280;8410;52.532;13.336;2024-02-15T05:57:55;101217.97;;;19.26;65.88
16595;BME280;8410;52.532;13.336;2024-02-15T06:00:23;101215.34;;;19.27;65.39
16595;BME280;8410;52.532;13.336;2024-02-15T06:02:50;101211.88;;;19.25;65.63
16595;BME280;8410;52.532;13.336;2024-02-15T06:05:19;101213.81;;;19.12;65.34
16595;BME280;8410;52.532;13.336;2024-02-15T06:07:48;101205.34;;;18.98;66.29
16595;BME280;8410;52.532;13.336;2024-02-15T06:10:16;101212.75;;;19.26;65.88
16595;BME280;8410;52.532;13.336;2024-02-15T06:12:44;101209.41;;;19.16;65.86
16595;BME280;8410;52.532;13.336;2024-02-15T06:15:11;101209.38;;;19.17;65.91
16595;BME280;8410;52.532;13.336;2024-02-15T06:17:43;101211.22;;;19.12;66.24
16595;BME280;8410;52.532;13.336;2024-02-15T06:20:12;101217.22;;;19.16;66.13
16595;BME280;8410;52.532;13.336;2024-02-15T06:22:41;101211.31;;;19.06;66.39
16595;BME280;8410;52.532;13.336;2024-02-15T06:25:10;101219.03;;;19.12;65.53
16595;BME280;8410;52.532;13.336;2024-02-15T06:27:38;101213.66;;;19.23;65.75
16595;BME280;8410;52.532;13.336;2024-02-15T06:30:08;101218.94;;;19.18;66.15
16595;BME280;8410;52.532;13.336;2024-02-15T06:32:54;101223.41;;;19.10;66.86
16595;BME280;8410;52.532;13.336;2024-02-15T06:35:40;101225.69;;;19.33;65.96
16595;BME280;8410;52.532;13.336;2024-02-15T06:38:25;101221.38;;;19.31;65.21
16595;BME280;8410;52.532;13.336;2024-02-15T06:41:12;101228.47;;;19.23;66.12
16595;BME280;8410;52.532;13.336;2024-02-15T06:43:40;101235.50;;;19.17;65.86
16595;BME280;8410;52.532;13.336;2024-02-15T06:46:08;101225.75;;;19.29;66.00
16595;BME280;8410;52.532;13.336;2024-02-15T06:48:37;101237.16;;;19.22;66.33
16595;BME280;8410;52.532;13.336;2024-02-15T06:51:05;101230.00;;;19.36;66.10
16595;BME280;8410;52.532;13.336;2024-02-15T06:53:34;101233.34;;;19.44;65.31
16595;BME280;8410;52.532;13.336;2024-02-15T06:56:02;101237.66;;;19.47;65.04
16595;BME280;8410;52.532;13.336;2024-02-15T06:58:33;101235.03;;;19.47;65.28
16595;BME280;8410;52.532;13.336;2024-02-15T07:01:00;101242.13;;;19.38;65.20
16595;BME280;8410;52.532;13.336;2024-02-15T07:03:28;101248.25;;;19.36;65.92
16595;BME280;8410;52.532;13.336;2024-02-15T07:05:58;101250.56;;;19.54;65.23
16595;BME280;8410;52.532;13.336;2024-02-15T07:08:26;101248.63;;;19.69;64.86
16595;BME280;8410;52.532;13.336;2024-02-15T07:10:53;101248.63;;;19.66;64.88
16595;BME280;8410;52.532;13.336;2024-02-15T07:13:21;101245.19;;;19.64;64.77
16595;BME280;8410;52.532;13.336;2024-02-15T07:15:50;101252.16;;;19.65;65.05
16595;BME280;8410;52.532;13.336;2024-02-15T07:18:18;101250.72;;;19.45;65.71
16595;BME280;8410;52.532;13.336;2024-02-15T07:20:48;101248.88;;;19.50;65.67
16595;BME280;8410;52.532;13.336;2024-02-15T07:23:15;101245.94;;;19.73;65.07
16595;BME280;8410;52.532;13.336;2024-02-15T07:25:43;101252.06;;;19.71;65.20
16595;BME280;8410;52.532;13.336;2024-02-15T07:28:15;101244.50;;;19.52;65.27
16595;BME280;8410;52.532;13.336;2024-02-15T07:30:42;101240.94;;;19.56;65.72
16595;BME280;8410;52.532;13.336;2024-02-15T07:33:11;101243.47;;;19.61;65.41
16595;BME280;8410;52.532;13.336;2024-02-15T07:35:41;101252.16;;;19.65;65.13
16595;BME280;8410;52.532;13.336;2024-02-15T07:38:09;101253.91;;;19.63;65.35
16595;BME280;8410;52.532;13.336;2024-02-15T07:40:37;101244.97;;;19.79;65.10
16595;BME280;8410;52.532;13.336;2024-02-15T07:43:06;101247.38;;;19.90;64.94
16595;BME280;8410;52.532;13.336;2024-02-15T07:45:33;101249.13;;;19.89;64.90
16595;BME280;8410;52.532;13.336;2024-02-15T07:48:04;101253.59;;;19.84;65.15
16595;BME280;8410;52.532;13.336;2024-02-15T07:50:33;101245.03;;;19.76;65.53
16595;BME280;8410;52.532;13.336;2024-02-15T07:53:04;101244.84;;;19.85;64.91
16595;BME280;8410;52.532;13.336;2024-02-15T07:55:33;101241.19;;;19.95;64.26
16595;BME280;8410;52.532;13.336;2024-02-15T07:58:01;101247.72;;;20.18;64.19
16595;BME280;8410;52.532;13.336;2024-02-15T08:00:28;101244.22;;;20.19;63.90
16595;BME280;8410;52.532;13.336;2024-02-15T08:02:56;101244.03;;;20.28;64.12
16595;BME280;8410;52.532;13.336;2024-02-15T08:05:25;101252.00;;;20.23;63.77
16595;BME280;8410;52.532;13.336;2024-02-15T08:07:54;101256.25;;;20.26;63.71
16595;BME280;8410;52.532;13.336;2024-02-15T08:10:24;101258.56;;;19.96;64.35
16595;BME280;8410;52.532;13.336;2024-02-15T08:12:54;101248.34;;;20.31;63.61
16595;BME280;8410;52.532;13.336;2024-02-15T08:15:24;101249.44;;;20.19;64.48
16595;BME280;8410;52.532;13.336;2024-02-15T08:17:54;101256.25;;;20.26;64.04
16595;BME280;8410;52.532;13.336;2024-02-15T08:20:23;101256.03;;;20.38;63.96
16595;BME280;8410;52.532;13.336;2024-02-15T08:22:50;101255.25;;;20.33;63.42
16595;BME280;8410;52.532;13.336;2024-02-15T08:25:19;101265.44;;;20.48;63.67
16595;BME280;8410;52.532;13.336;2024-02-15T08:27:48;101264.44;;;20.56;63.19
16595;BME280;8410;52.532;13.336;2024-02-15T08:30:17;101258.56;;;20.43;63.69
16595;BME280;8410;52.532;13.336;2024-02-15T08:32:50;101262.97;;;20.41;63.65
16595;BME280;8410;52.532;13.336;2024-02-15T08:35:21;101260.38;;;20.39;63.23
16595;BME280;8410;52.532;13.336;2024-02-15T08:37:49;101263.97;;;20.34;63.93
16595;BME280;8410;52.532;13.336;2024-02-15T08:40:19;101261.25;;;20.38;63.10
16595;BME280;8410;52.532;13.336;2024-02-15T08:42:52;101264.88;;;20.31;63.88
16595;BME280;8410;52.532;13.336;2024-02-15T08:45:20;101258.72;;;20.34;63.89
16595;BME280;8410;52.532;13.336;2024-02-15T08:47:48;101259.50;;;20.40;63.76
16595;BME280;8410;52.532;13.336;2024-02-15T08:50:16;101252.06;;;20.19;64.14
16595;BME280;8410;52.532;13.336;2024-02-15T08:52:44;101254.50;;;20.28;64.11
16595;BME280;8410;52.532;13.336;2024-02-15T08:55:13;101255.88;;;20.47;63.91
16595;BME280;8410;52.532;13.336;2024-02-15T08:57:43;101261.78;;;20.57;62.95
16595;BME280;8410;52.532;13.336;2024-02-15T09:00:12;101263.31;;;20.69;63.44
16595;BME280;8410;52.532;13.336;2024-02-15T09:02:42;101259.78;;;20.68;63.44
16595;BME280;8410;52.532;13.336;2024-02-15T09:05:10;101258.00;;;20.70;63.40
16595;BME280;8410;52.532;13.336;2024-02-15T09:07:40;101263.19;;;20.74;62.77
16595;BME280;8410;52.532;13.336;2024-02-15T09:10:09;101261.63;;;20.65;63.21
16595;BME280;8410;52.532;13.336;2024-02-15T09:12:39;101255.03;;;20.87;62.77
16595;BME280;8410;52.532;13.336;2024-02-15T09:15:09;101253.97;;;20.96;62.47
16595;BME280;8410;52.532;13.336;2024-02-15T09:17:37;101259.56;;;20.79;61.87
16595;BME280;8410;52.532;13.336;2024-02-15T09:20:07;101262.63;;;21.00;63.08
16595;BME280;8410;52.532;13.336;2024-02-15T09:22:35;101264.81;;;21.18;62.45
16595;BME280;8410;52.532;13.336;2024-02-15T09:25:03;101269.81;;;20.90;62.90
16595;BME280;8410;52.532;13.336;2024-02-15T09:27:31;101267.09;;;20.95;62.83
16595;BME280;8410;52.532;13.336;2024-02-15T09:29:58;101261.41;;;20.76;63.26
16595;BME280;8410;52.532;13.336;2024-02-15T09:32:27;101266.47;;;20.83;63.06
16595;BME280;8410;52.532;13.336;2024-02-15T09:34:54;101267.78;;;20.62;63.83
16595;BME280;8410;52.532;13.336;2024-02-15T09:37:23;101269.66;;;19.56;65.19
16595;BME280;8410;52.532;13.336;2024-02-15T09:39:50;101268.28;;;20.36;64.92
16595;BME280;8410;52.532;13.336;2024-02-15T09:42:18;101267.97;;;20.07;65.65
16595;BME280;8410;52.532;13.336;2024-02-15T09:44:46;101274.72;;;20.65;63.64
16595;BME280;8410;52.532;13.336;2024-02-15T09:47:15;101273.78;;;20.67;62.97
16595;BME280;8410;52.532;13.336;2024-02-15T09:49:45;101277.88;;;20.79;63.24
16595;BME280;8410;52.532;13.336;2024-02-15T09:52:12;101274.25;;;20.86;63.02
16595;BME280;8410;52.532;13.336;2024-02-15T09:54:43;101275.09;;;20.87;62.43
16595;BME280;8410;52.532;13.336;2024-02-15T09:57:11;101281.53;;;21.12;62.17
16595;BME280;8410;52.532;13.336;2024-02-15T09:59:39;101277.06;;;21.55;61.26
16595;BME280;8410;52.532;13.336;2024-02-15T10:02:08;101269.50;;;21.78;61.14
16595;BME280;8410;52.532;13.336;2024-02-15T10:04:39;101283.81;;;21.65;61.17
16595;BME280;8410;52.532;13.336;2024-02-15T10:07:09;101293.19;;;20.98;63.25
16595;BME280;8410;52.532;13.336;2024-02-15T10:09:37;101280.72;;;21.48;62.06
16595;BME280;8410;52.532;13.336;2024-02-15T10:12:05;101279.66;;;21.18;62.68
16595;BME280;8410;52.532;13.336;2024-02-15T10:14:33;101265.84;;;21.50;62.12
16595;BME280;8410;52.532;13.336;2024-02-15T10:17:05;101270.13;;;21.15;62.27
16595;BME280;8410;52.532;13.336;2024-02-15T10:19:35;101273.91;;;21.02;63.27
16595;BME280;8410;52.532;13.336;2024-02-15T10:22:07;101276.59;;;21.38;62.95
16595;BME280;8410;52.532;13.336;2024-02-15T10:24:36;101282.50;;;21.46;62.18
16595;BME280;8410;52.532;13.336;2024-02-15T10:27:06;101288.84;;;21.35;62.91
16595;BME280;8410;52.532;13.336;2024-02-15T10:29:34;101279.91;;;21.46;62.70
16595;BME280;8410;52.532;13.336;2024-02-15T10:32:02;101267.72;;;21.45;62.02
16595;BME280;8410;52.532;13.336;2024-02-15T10:34:34;101279.97;;;21.43;62.75
16595;BME280;8410;52.532;13.336;2024-02-15T10:37:10;101271.38;;;21.38;62.69
16595;BME280;8410;52.532;13.336;2024-02-15T10:39:40;101274.31;;;20.83;63.12
16595;BME280;8410;52.532;13.336;2024-02-15T10:42:08;101264.59;;;21.27;63.65
16595;BME280;8410;52.532;13.336;2024-02-15T10:44:38;101270.34;;;21.45;62.00
16595;BME280;8410;52.532;13.336;2024-02-15T10:47:07;101257.53;;;21.68;62.13
16595;BME280;8410;52.532;13.336;2024-02-15T10:49:36;101268.50;;;21.83;62.20
16595;BME280;8410;52.532;13.336;2024-02-15T10:52:04;101262.00;;;21.97;62.00
16595;BME280;8410;52.532;13.336;2024-02-15T10:54:41;101254.72;;;22.09;61.94
16595;BME280;8410;52.532;13.336;2024-02-15T10:57:10;101263.25;;;22.15;61.47
16595;BME280;8410;52.532;13.336;2024-02-15T10:59:44;101260.72;;;22.12;61.85
16595;BME280;8410;52.532;13.336;2024-02-15T11:02:27;101264.03;;;22.20;61.26
16595;BME280;8410;52.532;13.336;2024-02-15T11:05:02;101262.78;;;21.67;62.81
16595;BME280;8410;52.532;13.336;2024-02-15T11:07:31;101266.06;;;21.76;62.83
16595;BME280;8410;52.532;13.336;2024-02-15T11:10:01;101263.72;;;21.98;62.32
16595;BME280;8410;52.532;13.336;2024-02-15T11:12:31;101259.25;;;22.02;61.51
16595;BME280;8410;52.532;13.336;2024-02-15T11:14:59;101256.78;;;21.96;62.32
16595;BME280;8410;52.532;13.336;2024-02-15T11:17:46;101248.34;;;22.17;61.37
16595;BME280;8410;52.532;13.336;2024-02-15T11:20:51;101251.00;;;22.16;61.13
16595;BME280;8410;52.532;13.336;2024-02-15T11:23:25;101246.00;;;22.08;61.83
16595;BME280;8410;52.532;13.336;2024-02-15T11:26:04;101243.38;;;22.08;61.90
16595;BME280;8410;52.532;13.336;2024-02-15T11:28:43;101244.50;;;21.98;62.24
16595;BME280;8410;52.532;13.336;2024-02-15T11:31:53;101246.59;;;22.19;60.92
16595;BME280;8410;52.532;13.336;2024-02-15T11:34:41;101246.97;;;22.04;62.20
16595;BME280;8410;52.532;13.336;2024-02-15T11:40:20;101249.38;;;22.12;61.83
16595;BME280;8410;52.532;13.336;2024-02-15T11:42:51;101247.72;;;22.08;61.61
16595;BME280;8410;52.532;13.336;2024-02-15T11:45:21;101247.69;;;22.09;61.85
16595;BME280;8410;52.532;13.336;2024-02-15T11:47:49;101248.44;;;21.82;61.72
16595;BME280;8410;52.532;13.336;2024-02-15T11:50:19;101249.63;;;22.02;61.81
16595;BME280;8410;52.532;13.336;2024-02-15T11:52:47;101248.66;;;22.05;61.86
16595;BME280;8410;52.532;13.336;2024-02-15T11:55:18;101250.63;;;21.97;61.91
16595;BME280;8410;52.532;13.336;2024-02-15T11:57:57;101245.25;;;22.03;62.18
16595;BME280;8410;52.532;13.336;2024-02-15T12:00:29;101246.78;;;22.10;61.44
16595;BME280;8410;52.532;13.336;2024-02-15T12:03:16;101245.25;;;22.03;61.20
16595;BME280;8410;52.532;13.336;2024-02-15T12:06:02;101240.88;;;22.03;61.93
16595;BME280;8410;52.532;13.336;2024-02-15T12:08:49;101243.00;;;21.89;62.60
16595;BME280;8410;52.532;13.336;2024-02-15T12:11:34;101235.66;;;22.02;61.81
16595;BME280;8410;52.532;13.336;2024-02-15T12:14:21;101240.13;;;21.98;62.19
16595;BME280;8410;52.532;13.336;2024-02-15T12:17:08;101235.25;;;21.85;62.16
16595;BME280;8410;52.532;13.336;2024-02-15T12:19:54;101228.63;;;21.71;62.74
16595;BME280;8410;52.532;13.336;2024-02-15T12:22:25;101224.13;;;21.76;62.64
16595;BME280;8410;52.532;13.336;2024-02-15T12:24:57;101223.44;;;22.02;62.02
16595;BME280;8410;52.532;13.336;2024-02-15T12:27:26;101217.38;;;22.32;61.64
16595;BME280;8410;52.532;13.336;2024-02-15T12:29:56;101209.59;;;22.29;60.78
16595;BME280;8410;52.532;13.336;2024-02-15T12:32:25;101221.72;;;22.33;61.22
16595;BME280;8410;52.532;13.336;2024-02-15T12:35:09;101224.78;;;21.85;62.88
16595;BME280;8410;52.532;13.336;2024-02-15T12:37:37;101213.81;;;22.01;61.37
16595;BME280;8410;52.532;13.336;2024-02-15T12:40:10;101208.53;;;22.03;61.98
16595;BME280;8410;52.532;13.336;2024-02-15T12:42:42;101203.19;;;22.39;61.54
16595;BME280;8410;52.532;13.336;2024-02-15T12:45:20;101194.19;;;22.16;61.72
16595;BME280;8410;52.532;13.336;2024-02-15T12:47:50;101196.09;;;22.10;61.02
16595;BME280;8410;52.532;13.336;2024-02-15T12:50:19;101194.50;;;22.37;61.24
16595;BME280;8410;52.532;13.336;2024-02-15T12:52:49;101195.25;;;22.09;62.11
16595;BME280;8410;52.532;13.336;2024-02-15T12:55:18;101197.81;;;22.43;61.61
16595;BME280;8410;52.532;13.336;2024-02-15T12:57:48;101195.44;;;22.34;61.94
16595;BME280;8410;52.532;13.336;2024-02-15T13:00:20;101200.97;;;22.25;61.91
16595;BME280;8410;52.532;13.336;2024-02-15T13:02:50;101195.91;;;22.49;61.40
16595;BME280;8410;52.532;13.336;2024-02-15T13:05:19;101197.84;;;22.42;61.07
16595;BME280;8410;52.532;13.336;2024-02-15T13:07:49;101189.72;;;22.51;61.35